Time;durP1;ratioP1;P1;durP2;ratioP2;P2;SDS_P1;SDS_P2;PMS_P1;PMS_P2;Temp;Humidity;BMP_temperature;BMP_pressure;BME280_temperature;BME280_humidity;BME280_pressure;Samples;Min_cycle;Max_cycle;Signal;HPM_P1;HPM_P2
2022/08/16 00:01:24;;;;;;;15.68;10.27;;;;;;;;;;6218576;23;20017;-76
2022/08/16 00:04:02;;;;;;;11.85;8.52;;;;;;;;;;6217598;23;20020;-77
2022/08/16 00:06:32;;;;;;;12.18;9.25;;;;;;;;;;6218045;23;20023;-80
2022/08/16 00:09:03;;;;;;;12.40;9.55;;;;;;;;;;6217997;23;20028;-80
2022/08/16 00:11:56;;;;;;;12.38;9.27;;;;;;;;;;6218131;23;20021;-80
2022/08/16 00:14:50;;;;;;;12.63;9.20;;;;;;;;;;6218381;23;20028;-80
2022/08/16 00:17:24;;;;;;;14.63;9.52;;;;;;;;;;6218351;23;20020;-80
2022/08/16 00:20:17;;;;;;;12.45;8.60;;;;;;;;;;6217937;23;20103;-80
2022/08/16 00:23:58;;;;;;;13.82;9.52;;;;;;;;;;6235028;23;20027;-85
2022/08/16 00:28:37;;;;;;;14.55;8.85;;;;;;;;;;6230367;23;20099;-85
2022/08/16 00:33:10;;;;;;;13.00;8.75;;;;;;;;;;6202766;23;20025;-86
2022/08/16 00:37:37;;;;;;;12.80;8.63;;;;;;;;;;6112995;23;20025;-86
2022/08/16 00:40:43;;;;;;;12.93;8.43;;;;;;;;;;6100369;23;20101;-77
2022/08/16 00:43:29;;;;;;;12.00;8.80;;;;;;;;;;6125069;23;20478;-83
2022/08/16 00:46:43;;;;;;;13.40;8.45;;;;;;;;;;6125389;23;20470;-83
2022/08/16 00:49:32;;;;;;;13.77;8.98;;;;;;;;;;6100239;23;20072;-83
2022/08/16 00:52:07;;;;;;;11.52;8.35;;;;;;;;;;6102436;23;20081;-83
2022/08/16 01:13:20;;;;;;;13.20;9.07;;;;;;;;;;6011766;23;20020;-78
2022/08/16 01:16:01;;;;;;;12.98;8.60;;;;;;;;;;6010777;23;20385;-78
2022/08/16 01:18:54;;;;;;;14.07;8.38;;;;;;;;;;6011509;23;20038;-84
2022/08/16 01:21:37;;;;;;;11.02;8.23;;;;;;;;;;6000138;23;20130;-84
2022/08/16 01:24:35;;;;;;;13.27;8.75;;;;;;;;;;6011084;23;20415;-84
2022/08/16 01:27:30;;;;;;;12.60;8.43;;;;;;;;;;6011446;23;20656;-77
2022/08/16 01:30:06;;;;;;;11.43;7.95;;;;;;;;;;6011487;23;20035;-78
2022/08/16 01:32:47;;;;;;;13.52;8.75;;;;;;;;;;6011817;23;20055;-82
2022/08/16 01:35:43;;;;;;;11.48;8.63;;;;;;;;;;6052659;23;20441;-82
2022/08/16 01:38:33;;;;;;;11.68;8.40;;;;;;;;;;6073282;23;20283;-82
2022/08/16 01:41:08;;;;;;;11.90;8.40;;;;;;;;;;6097481;23;20101;-82
2022/08/16 01:44:16;;;;;;;13.35;9.15;;;;;;;;;;6073012;23;20763;-86
2022/08/16 01:48:38;;;;;;;13.68;8.70;;;;;;;;;;6114123;23;20405;-87
2022/08/16 01:52:23;;;;;;;11.30;8.63;;;;;;;;;;6175604;23;20040;-86
2022/08/16 01:57:16;;;;;;;13.90;9.60;;;;;;;;;;6126451;23;20331;-86
2022/08/16 02:00:45;;;;;;;10.40;8.52;;;;;;;;;;5992826;23;20034;-78
2022/08/16 02:03:14;;;;;;;14.48;8.50;;;;;;;;;;6044684;23;20033;-78
2022/08/16 02:06:06;;;;;;;11.88;8.82;;;;;;;;;;6068648;23;20023;-82
2022/08/16 02:08:39;;;;;;;13.48;9.23;;;;;;;;;;6067691;23;20046;-82
2022/08/16 02:11:50;;;;;;;12.38;9.07;;;;;;;;;;6044169;23;20030;-86
2022/08/16 02:16:15;;;;;;;15.82;9.10;;;;;;;;;;6029368;23;20031;-88
2022/08/16 02:21:02;;;;;;;12.68;8.38;;;;;;;;;;6023189;23;20038;-85
2022/08/16 02:24:31;;;;;;;14.60;9.80;;;;;;;;;;5926581;24;20029;-83
2022/08/16 02:27:40;;;;;;;13.40;9.43;;;;;;;;;;5927273;24;20525;-83
2022/08/16 02:30:13;;;;;;;12.75;9.10;;;;;;;;;;5904408;24;20086;-83
2022/08/16 02:33:02;;;;;;;11.07;8.95;;;;;;;;;;5926869;24;20505;-83
2022/08/16 02:35:31;;;;;;;12.68;9.18;;;;;;;;;;5950097;24;20029;-80
2022/08/16 02:37:59;;;;;;;12.02;9.18;;;;;;;;;;5950429;24;20055;-80
2022/08/16 02:40:38;;;;;;;11.32;8.82;;;;;;;;;;5949690;24;20032;-80
2022/08/16 02:43:09;;;;;;;13.48;9.10;;;;;;;;;;5950797;24;20043;-80
2022/08/16 02:45:38;;;;;;;13.07;8.95;;;;;;;;;;5933537;24;20021;-83
2022/08/16 02:48:09;;;;;;;13.77;9.98;;;;;;;;;;5973271;24;20032;-83
2022/08/16 02:51:04;;;;;;;11.30;8.82;;;;;;;;;;5978161;24;20045;-83
2022/08/16 02:53:44;;;;;;;13.93;9.15;;;;;;;;;;5944382;24;20028;-83
2022/08/16 02:56:36;;;;;;;12.75;8.43;;;;;;;;;;5977826;24;20020;-83
2022/08/16 02:59:04;;;;;;;14.27;9.13;;;;;;;;;;5978427;24;20029;-83
2022/08/16 03:01:40;;;;;;;13.63;9.55;;;;;;;;;;6108489;23;20053;-78
2022/08/16 03:04:22;;;;;;;12.60;8.77;;;;;;;;;;6148076;23;20029;-78
2022/08/16 03:07:11;;;;;;;13.45;9.57;;;;;;;;;;6101687;23;20037;-81
2022/08/16 03:09:53;;;;;;;12.82;9.65;;;;;;;;;;6077977;23;20022;-81
2022/08/16 03:12:22;;;;;;;14.13;9.30;;;;;;;;;;6150989;23;20030;-81
2022/08/16 03:15:09;;;;;;;12.45;9.23;;;;;;;;;;6217922;23;20085;-81
2022/08/16 03:17:45;;;;;;;11.68;8.85;;;;;;;;;;6223496;23;20020;-78
2022/08/16 03:20:20;;;;;;;13.07;9.43;;;;;;;;;;6222694;23;20027;-78
2022/08/16 03:23:13;;;;;;;13.45;9.15;;;;;;;;;;6221983;23;20019;-81
2022/08/16 03:26:09;;;;;;;;;;;;;;;;;;6248753;23;20020;-81
2022/08/16 03:28:36;;;;;;;13.07;9.70;;;;;;;;;;6222947;23;20336;-81
2022/08/16 03:31:08;;;;;;;16.35;10.52;;;;;;;;;;6212440;23;20034;-81
2022/08/16 03:33:36;;;;;;;14.02;9.55;;;;;;;;;;6222299;23;20050;-83
2022/08/16 03:39:04;;;;;;;16.92;10.32;;;;;;;;;;6186204;23;20023;-84
2022/08/16 03:42:08;;;;;;;12.45;9.75;;;;;;;;;;6222470;23;20048;-84
2022/08/16 03:45:01;;;;;;;12.45;9.80;;;;;;;;;;6222355;23;20016;-84
2022/08/16 03:47:34;;;;;;;16.00;9.98;;;;;;;;;;6221993;23;20095;-84
2022/08/16 03:50:05;;;;;;;14.25;9.77;;;;;;;;;;6222686;23;20030;-79
2022/08/16 03:52:54;;;;;;;15.88;9.93;;;;;;;;;;6222812;23;20023;-77
2022/08/16 03:55:36;;;;;;;13.32;10.63;;;;;;;;;;6222239;23;20099;-84
2022/08/16 03:58:12;;;;;;;15.23;10.02;;;;;;;;;;6222941;23;20023;-84
2022/08/16 04:00:44;;;;;;;13.10;10.13;;;;;;;;;;6247761;23;20407;-84
2022/08/16 04:03:16;;;;;;;17.42;11.13;;;;;;;;;;6197634;23;20028;-84
2022/08/16 04:05:47;;;;;;;13.80;11.15;;;;;;;;;;6221107;23;20059;-84
2022/08/16 04:08:38;;;;;;;15.82;10.13;;;;;;;;;;6221853;23;20034;-78
2022/08/16 04:11:13;;;;;;;15.23;10.48;;;;;;;;;;6222167;23;20024;-78
2022/08/16 04:14:08;;;;;;;;;;;;;;;;;;6249229;23;20019;-84
2022/08/16 04:16:56;;;;;;;16.50;9.50;;;;;;;;;;6221133;23;20270;-84
2022/08/16 04:19:34;;;;;;;17.10;11.30;;;;;;;;;;6221906;23;20019;-84
2022/08/16 04:22:13;;;;;;;16.02;10.35;;;;;;;;;;6222038;23;20386;-84
2022/08/16 04:24:51;;;;;;;14.45;10.23;;;;;;;;;;6221530;23;20490;-84
2022/08/16 04:27:24;;;;;;;14.95;10.70;;;;;;;;;;6198561;23;20020;-84
2022/08/16 04:29:59;;;;;;;21.83;11.73;;;;;;;;;;6221184;23;20020;-77
2022/08/16 04:32:31;;;;;;;15.38;10.98;;;;;;;;;;6248187;23;20020;-78
2022/08/16 04:34:59;;;;;;;14.73;10.63;;;;;;;;;;6223187;23;20047;-85
2022/08/16 04:37:46;;;;;;;17.45;11.23;;;;;;;;;;6250539;23;20408;-84
2022/08/16 04:40:55;;;;;;;16.15;10.90;;;;;;;;;;6208707;23;20099;-84
2022/08/16 04:43:50;;;;;;;17.42;10.98;;;;;;;;;;6176557;23;20460;-84
2022/08/16 04:46:39;;;;;;;19.52;11.15;;;;;;;;;;6140932;23;20025;-84
2022/08/16 04:49:33;;;;;;;14.85;10.82;;;;;;;;;;6166537;23;20013;-85
2022/08/16 04:52:16;;;;;;;16.67;11.50;;;;;;;;;;6119382;23;20047;-78
2022/08/16 04:55:12;;;;;;;15.38;10.57;;;;;;;;;;6162073;23;20016;-78
2022/08/16 04:57:46;;;;;;;18.13;11.35;;;;;;;;;;6126678;23;20025;-85
2022/08/16 05:00:50;;;;;;;16.20;11.23;;;;;;;;;;6130730;23;20033;-84
2022/08/16 05:03:36;;;;;;;15.30;11.35;;;;;;;;;;6176147;23;20425;-84
2022/08/16 05:06:24;;;;;;;20.85;12.77;;;;;;;;;;6125358;23;20025;-86
2022/08/16 05:09:28;;;;;;;17.92;11.68;;;;;;;;;;6206830;23;20052;-77
2022/08/16 05:11:56;;;;;;;17.60;10.93;;;;;;;;;;6190949;23;20051;-77
2022/08/16 05:14:26;;;;;;;19.48;12.18;;;;;;;;;;6198842;23;20039;-77
2022/08/16 05:17:22;;;;;;;;;;;;;;;;;;6188152;23;20338;-77
2022/08/16 05:20:14;;;;;;;18.70;11.98;;;;;;;;;;6223586;23;19938;-78
2022/08/16 05:23:02;;;;;;;19.38;12.65;;;;;;;;;;6223259;23;20016;-78
2022/08/16 05:25:34;;;;;;;19.42;12.98;;;;;;;;;;6223543;23;20016;-77
2022/08/16 05:28:17;;;;;;;21.73;13.35;;;;;;;;;;6223263;23;20023;-77
2022/08/16 05:34:08;;;;;;;23.10;14.20;;;;;;;;;;6250259;23;20024;-77
2022/08/16 05:36:49;;;;;;;23.40;14.38;;;;;;;;;;6223585;23;20016;-76
2022/08/16 05:39:23;;;;;;;21.42;14.40;;;;;;;;;;6222424;23;20016;-76
2022/08/16 05:42:17;;;;;;;18.60;12.27;;;;;;;;;;6213369;23;20028;-76
2022/08/16 05:45:04;;;;;;;21.40;13.32;;;;;;;;;;6221779;23;20043;-76
2022/08/16 05:47:34;;;;;;;21.48;13.77;;;;;;;;;;6223408;23;20038;-76
2022/08/16 05:50:10;;;;;;;22.13;12.50;;;;;;;;;;6223380;23;20024;-76
2022/08/16 05:52:52;;;;;;;18.27;12.25;;;;;;;;;;6223738;23;20023;-76
2022/08/16 05:55:20;;;;;;;23.90;15.02;;;;;;;;;;6223288;23;20054;-76
2022/08/16 05:57:50;;;;;;;22.98;14.93;;;;;;;;;;6223270;23;20035;-75
2022/08/16 06:00:20;;;;;;;19.25;13.80;;;;;;;;;;6196434;23;20016;-75
2022/08/16 06:02:56;;;;;;;19.92;14.00;;;;;;;;;;6220129;23;20039;-76
2022/08/16 06:05:52;;;;;;;24.15;14.85;;;;;;;;;;6248895;23;20023;-76
2022/08/16 06:08:20;;;;;;;21.27;15.10;;;;;;;;;;6222628;23;20455;-76
2022/08/16 06:11:00;;;;;;;21.17;14.52;;;;;;;;;;6223185;23;20019;-76
2022/08/16 06:13:37;;;;;;;20.67;14.40;;;;;;;;;;6223093;23;20039;-76
2022/08/16 06:16:12;;;;;;;25.70;14.57;;;;;;;;;;6222025;23;20031;-76
2022/08/16 06:19:10;;;;;;;23.52;15.02;;;;;;;;;;6249074;23;20020;-79
2022/08/16 06:21:56;;;;;;;25.45;15.00;;;;;;;;;;6222311;23;20023;-76
2022/08/16 06:24:26;;;;;;;22.15;14.05;;;;;;;;;;6224073;23;20044;-76
2022/08/16 06:27:14;;;;;;;24.70;15.10;;;;;;;;;;6222758;23;20471;-76
2022/08/16 06:29:44;;;;;;;21.73;13.68;;;;;;;;;;6223422;23;20070;-76
2022/08/16 06:32:44;;;;;;;20.08;13.23;;;;;;;;;;6215896;23;20047;-76
2022/08/16 06:35:40;;;;;;;19.13;12.80;;;;;;;;;;6248786;23;20122;-77
2022/08/16 06:38:09;;;;;;;17.88;12.05;;;;;;;;;;6221536;23;20030;-77
2022/08/16 06:40:56;;;;;;;19.02;12.23;;;;;;;;;;6248681;23;20066;-77
2022/08/16 06:43:51;;;;;;;18.83;11.77;;;;;;;;;;6247451;23;20150;-77
2022/08/16 06:46:27;;;;;;;18.83;10.82;;;;;;;;;;6219308;23;20020;-76
2022/08/16 06:49:11;;;;;;;16.08;10.32;;;;;;;;;;6222699;23;20016;-76
2022/08/16 06:51:41;;;;;;;16.65;10.43;;;;;;;;;;6221586;23;20016;-76
2022/08/16 06:54:24;;;;;;;15.90;9.70;;;;;;;;;;6221142;23;20012;-76
2022/08/16 06:56:52;;;;;;;17.10;9.82;;;;;;;;;;6220115;23;20483;-76
2022/08/16 06:59:22;;;;;;;12.32;8.70;;;;;;;;;;6221317;23;20074;-76
2022/08/16 07:02:18;;;;;;;;;;;;;;;;;;6247544;23;20050;-76
2022/08/16 07:05:05;;;;;;;14.45;8.70;;;;;;;;;;6222258;23;19969;-76
2022/08/16 07:07:55;;;;;;;13.70;8.68;;;;;;;;;;6186739;23;20448;-76
2022/08/16 07:10:25;;;;;;;17.38;8.95;;;;;;;;;;6222081;23;20095;-76
2022/08/16 07:12:58;;;;;;;14.40;7.60;;;;;;;;;;6221731;23;20024;-76
2022/08/16 07:15:36;;;;;;;18.13;7.95;;;;;;;;;;6198812;23;20102;-76
2022/08/16 07:18:19;;;;;;;10.45;6.63;;;;;;;;;;6220327;23;20035;-76
2022/08/16 07:20:48;;;;;;;15.98;7.43;;;;;;;;;;6221825;23;20016;-76
2022/08/16 07:23:17;;;;;;;12.40;7.95;;;;;;;;;;6248076;23;20086;-76
2022/08/16 07:26:16;;;;;;;12.18;7.50;;;;;;;;;;6247887;23;20024;-76
2022/08/16 07:28:54;;;;;;;11.63;6.53;;;;;;;;;;6221410;23;20031;-77
2022/08/16 07:31:28;;;;;;;12.32;6.85;;;;;;;;;;6220633;23;20020;-76
2022/08/16 07:34:06;;;;;;;11.75;7.15;;;;;;;;;;6221410;23;20136;-77
2022/08/16 07:36:37;;;;;;;13.30;6.35;;;;;;;;;;6247534;23;20767;-76
2022/08/16 07:39:04;;;;;;;14.00;5.93;;;;;;;;;;6219647;23;20020;-76
2022/08/16 07:41:35;;;;;;;12.27;5.50;;;;;;;;;;6221243;23;20038;-76
2022/08/16 07:44:03;;;;;;;7.88;5.22;;;;;;;;;;6196916;23;20058;-76
2022/08/16 07:46:44;;;;;;;9.95;5.90;;;;;;;;;;6218289;23;20020;-76
2022/08/16 07:49:16;;;;;;;14.05;5.70;;;;;;;;;;6221475;23;20020;-76
2022/08/16 07:51:44;;;;;;;12.57;5.65;;;;;;;;;;6221099;23;20407;-76
2022/08/16 07:54:15;;;;;;;8.70;5.55;;;;;;;;;;6221436;23;20060;-76
2022/08/16 07:57:11;;;;;;;8.10;5.05;;;;;;;;;;6216679;23;20008;-75
2022/08/16 07:59:43;;;;;;;9.52;4.85;;;;;;;;;;6221678;23;20066;-76
2022/08/16 08:02:17;;;;;;;7.78;4.68;;;;;;;;;;6183190;23;20020;-77
2022/08/16 08:05:13;;;;;;;6.70;4.45;;;;;;;;;;6247361;23;20028;-77
2022/08/16 08:07:40;;;;;;;8.98;4.30;;;;;;;;;;6219096;23;20020;-76
2022/08/16 08:10:16;;;;;;;10.63;4.25;;;;;;;;;;6215921;23;20062;-76
2022/08/16 08:12:56;;;;;;;9.63;4.95;;;;;;;;;;6220950;23;20019;-76
2022/08/16 08:15:27;;;;;;;9.50;5.03;;;;;;;;;;6219427;23;20019;-76
2022/08/16 08:18:04;;;;;;;8.57;5.18;;;;;;;;;;6161755;23;20016;-76
2022/08/16 08:20:52;;;;;;;8.57;5.10;;;;;;;;;;6221114;23;20448;-76
2022/08/16 08:23:27;;;;;;;9.13;5.15;;;;;;;;;;6221159;23;20051;-77
2022/08/16 08:25:54;;;;;;;6.78;4.53;;;;;;;;;;6221141;23;20020;-76
2022/08/16 08:28:29;;;;;;;9.38;4.90;;;;;;;;;;6220716;23;20062;-76
2022/08/16 08:31:02;;;;;;;11.77;4.30;;;;;;;;;;6221259;23;20020;-77
2022/08/16 08:33:35;;;;;;;8.18;4.85;;;;;;;;;;6246281;23;20043;-77
2022/08/16 08:36:15;;;;;;;9.03;4.00;;;;;;;;;;6219137;23;20398;-77
2022/08/16 08:38:56;;;;;;;9.15;3.97;;;;;;;;;;6220889;23;20403;-78
2022/08/16 08:41:27;;;;;;;5.53;4.00;;;;;;;;;;6247733;23;20363;-78
2022/08/16 08:44:00;;;;;;;7.43;4.18;;;;;;;;;;6221456;23;20031;-77
2022/08/16 08:46:48;;;;;;;9.65;4.63;;;;;;;;;;6218824;23;20348;-78
2022/08/16 08:49:34;;;;;;;8.45;4.50;;;;;;;;;;6216413;23;20025;-77
2022/08/16 08:52:25;;;;;;;8.50;4.00;;;;;;;;;;6219275;23;20024;-78
2022/08/16 08:55:06;;;;;;;7.68;4.32;;;;;;;;;;6220692;23;20054;-78
2022/08/16 08:57:42;;;;;;;7.63;4.37;;;;;;;;;;6183563;23;20328;-78
2022/08/16 09:00:33;;;;;;;5.95;3.85;;;;;;;;;;6151449;23;20059;-78
2022/08/16 09:03:16;;;;;;;8.40;4.25;;;;;;;;;;6152202;23;20130;-81
2022/08/16 09:05:44;;;;;;;11.30;5.00;;;;;;;;;;6129055;23;20033;-79
2022/08/16 09:08:18;;;;;;;10.17;4.80;;;;;;;;;;6129761;23;20116;-78
2022/08/16 09:10:57;;;;;;;8.20;4.32;;;;;;;;;;6129152;23;20316;-77
2022/08/16 09:13:34;;;;;;;8.83;4.47;;;;;;;;;;6129215;23;20036;-78
2022/08/16 09:16:16;;;;;;;6.90;4.35;;;;;;;;;;6129024;23;20318;-77
2022/08/16 09:19:04;;;;;;;8.38;4.20;;;;;;;;;;6128396;23;20025;-78
2022/08/16 09:21:36;;;;;;;10.35;5.38;;;;;;;;;;6130379;23;20084;-77
2022/08/16 09:24:05;;;;;;;7.35;5.10;;;;;;;;;;6130929;23;20060;-77
2022/08/16 09:26:56;;;;;;;10.18;4.97;;;;;;;;;;6122930;23;20017;-77
2022/08/16 09:29:24;;;;;;;8.55;4.90;;;;;;;;;;6131400;23;20025;-77
2022/08/16 09:32:15;;;;;;;8.10;5.03;;;;;;;;;;6129461;23;20481;-78
2022/08/16 09:34:58;;;;;;;8.25;4.78;;;;;;;;;;6155379;23;20458;-77
2022/08/16 09:37:29;;;;;;;8.40;5.05;;;;;;;;;;6193664;23;20020;-78
2022/08/16 09:40:05;;;;;;;8.48;5.75;;;;;;;;;;6249487;23;20097;-78
2022/08/16 09:42:54;;;;;;;9.43;4.90;;;;;;;;;;6211508;23;20219;-78
2022/08/16 09:45:31;;;;;;;12.85;6.25;;;;;;;;;;6248884;23;20020;-78
2022/08/16 09:48:08;;;;;;;7.70;5.47;;;;;;;;;;6221520;23;20023;-78
2022/08/16 09:50:35;;;;;;;9.13;4.68;;;;;;;;;;6187439;23;20365;-77
2022/08/16 09:53:15;;;;;;;9.57;4.75;;;;;;;;;;6248659;23;20543;-78
2022/08/16 09:56:24;;;;;;;7.22;5.00;;;;;;;;;;6227558;23;20016;-78
2022/08/16 09:58:52;;;;;;;11.50;4.82;;;;;;;;;;6248584;23;20027;-78
2022/08/16 10:01:59;;;;;;;7.57;4.55;;;;;;;;;;6247189;23;20058;-78
2022/08/16 10:04:27;;;;;;;6.40;4.50;;;;;;;;;;6248637;23;20456;-78
2022/08/16 10:07:29;;;;;;;8.70;4.38;;;;;;;;;;6248017;23;20023;-78
2022/08/16 10:10:13;;;;;;;6.43;4.38;;;;;;;;;;6248183;23;20091;-78
2022/08/16 10:13:11;;;;;;;6.15;4.25;;;;;;;;;;6248028;23;20523;-78
2022/08/16 10:15:46;;;;;;;6.20;3.45;;;;;;;;;;6248624;23;20027;-78
2022/08/16 10:18:23;;;;;;;8.43;4.45;;;;;;;;;;6246775;23;20016;-78
2022/08/16 10:21:10;;;;;;;6.28;3.70;;;;;;;;;;6248301;23;20024;-78
2022/08/16 10:23:43;;;;;;;9.57;4.50;;;;;;;;;;6247629;23;20507;-78
2022/08/16 10:26:11;;;;;;;7.63;3.80;;;;;;;;;;6248340;23;20093;-78
2022/08/16 10:28:59;;;;;;;6.90;3.95;;;;;;;;;;6248284;23;20016;-78
2022/08/16 10:31:33;;;;;;;6.95;3.88;;;;;;;;;;6210446;23;20024;-78
2022/08/16 10:34:24;;;;;;;7.63;3.67;;;;;;;;;;6248740;23;20022;-78
2022/08/16 10:37:00;;;;;;;7.07;4.57;;;;;;;;;;6247375;23;20043;-78
2022/08/16 10:39:29;;;;;;;9.07;4.10;;;;;;;;;;6247280;23;20363;-78
2022/08/16 10:42:21;;;;;;;5.60;4.10;;;;;;;;;;6247341;23;20097;-78
2022/08/16 10:45:16;;;;;;;7.32;4.07;;;;;;;;;;6227858;23;20478;-78
2022/08/16 10:47:44;;;;;;;7.20;4.10;;;;;;;;;;6247037;23;20020;-78
2022/08/16 10:50:12;;;;;;;8.27;4.40;;;;;;;;;;6247461;23;20403;-78
2022/08/16 10:52:53;;;;;;;8.98;4.40;;;;;;;;;;6246504;23;20046;-79
2022/08/16 10:55:26;;;;;;;8.32;3.97;;;;;;;;;;6248346;23;20028;-78
2022/08/16 10:58:15;;;;;;;7.72;4.32;;;;;;;;;;6248135;23;20019;-79
2022/08/16 11:01:09;;;;;;;10.30;4.20;;;;;;;;;;6248386;23;20081;-78
2022/08/16 11:04:22;;;;;;;;;;;;;;;;;;6211506;23;20023;-77
2022/08/16 11:07:14;;;;;;;8.38;3.92;;;;;;;;;;6209536;23;19938;-78
2022/08/16 11:10:03;;;;;;;7.18;4.88;;;;;;;;;;6225215;23;20479;-78
2022/08/16 11:12:53;;;;;;;7.20;4.70;;;;;;;;;;6247107;23;20020;-79
2022/08/16 11:15:23;;;;;;;6.05;4.07;;;;;;;;;;6249142;23;20707;-79
2022/08/16 11:17:53;;;;;;;6.32;3.75;;;;;;;;;;6245399;23;20019;-79
2022/08/16 11:20:47;;;;;;;8.25;5.00;;;;;;;;;;6247329;23;20479;-81
2022/08/16 11:23:16;;;;;;;7.28;4.35;;;;;;;;;;6221118;23;20020;-80
2022/08/16 11:25:51;;;;;;;7.53;4.60;;;;;;;;;;6247632;23;20020;-80
2022/08/16 11:28:38;;;;;;;7.38;4.78;;;;;;;;;;6219700;23;20074;-80
2022/08/16 11:31:26;;;;;;;7.32;4.70;;;;;;;;;;6244798;22;20048;-80
2022/08/16 11:34:24;;;;;;;7.00;4.45;;;;;;;;;;6246491;23;20028;-80
2022/08/16 11:37:06;;;;;;;6.82;4.70;;;;;;;;;;6246664;23;20109;-80
2022/08/16 11:39:54;;;;;;;7.45;3.97;;;;;;;;;;6248163;23;20020;-80
2022/08/16 11:42:26;;;;;;;9.10;4.25;;;;;;;;;;6247643;23;20024;-80
2022/08/16 11:44:58;;;;;;;7.20;4.80;;;;;;;;;;6248229;23;20016;-79
2022/08/16 11:47:26;;;;;;;11.63;4.50;;;;;;;;;;6247146;23;20023;-77
2022/08/16 11:49:59;;;;;;;12.63;4.07;;;;;;;;;;6221331;23;20028;-77
2022/08/16 11:52:26;;;;;;;6.60;4.20;;;;;;;;;;6247962;23;20015;-77
2022/08/16 11:58:14;;;;;;;10.00;5.50;;;;;;;;;;6246996;23;20020;-76
2022/08/16 12:00:47;;;;;;;9.85;4.90;;;;;;;;;;6246987;23;20020;-76
2022/08/16 12:03:20;;;;;;;8.50;4.82;;;;;;;;;;6219724;23;20020;-79
2022/08/16 12:06:13;;;;;;;8.80;5.47;;;;;;;;;;6247524;23;20449;-79
2022/08/16 12:08:57;;;;;;;10.60;5.75;;;;;;;;;;6247210;23;20016;-79
2022/08/16 12:11:52;;;;;;;12.05;6.30;;;;;;;;;;6246453;23;20425;-79
2022/08/16 12:14:20;;;;;;;13.80;6.97;;;;;;;;;;6247794;23;20027;-79
2022/08/16 12:16:53;;;;;;;9.73;6.00;;;;;;;;;;6245043;23;20602;-79
2022/08/16 12:19:24;;;;;;;10.13;6.20;;;;;;;;;;6247761;23;20020;-79
2022/08/16 12:22:04;;;;;;;10.02;6.35;;;;;;;;;;6246278;23;20043;-81
2022/08/16 12:24:48;;;;;;;;;;;;;;;;;;6237446;23;20028;-80
2022/08/16 12:27:51;;;;;;;11.93;6.50;;;;;;;;;;6208895;23;19923;-83
2022/08/16 12:30:27;;;;;;;9.07;5.43;;;;;;;;;;6194640;23;20333;-83
2022/08/16 12:33:09;;;;;;;9.95;5.63;;;;;;;;;;6246915;23;20451;-83
2022/08/16 12:36:02;;;;;;;7.47;5.05;;;;;;;;;;6249751;23;20471;-81
2022/08/16 12:38:40;;;;;;;8.13;4.72;;;;;;;;;;6248365;23;20016;-82
2022/08/16 12:41:16;;;;;;;8.88;4.53;;;;;;;;;;6247691;23;20027;-82
2022/08/16 12:44:05;;;;;;;9.30;4.93;;;;;;;;;;6247992;23;20016;-85
2022/08/16 12:48:56;;;;;;;7.88;4.55;;;;;;;;;;6163900;23;20020;-85
2022/08/16 12:49:34;;;;;;;7.25;4.82;;;;;;;;;;6210575;23;20028;-82
2022/08/16 12:52:16;;;;;;;7.20;4.88;;;;;;;;;;6223557;23;20035;-82
2022/08/16 12:55:02;;;;;;;10.43;5.38;;;;;;;;;;6248074;23;20023;-81
2022/08/16 12:57:31;;;;;;;10.63;5.28;;;;;;;;;;6211130;23;20024;-81
2022/08/16 13:00:15;;;;;;;8.18;5.40;;;;;;;;;;6247301;23;20047;-81
2022/08/16 13:03:02;;;;;;;7.82;5.43;;;;;;;;;;6247034;23;20048;-81
2022/08/16 13:05:39;;;;;;;10.77;5.30;;;;;;;;;;6248166;23;20403;-80
2022/08/16 13:08:20;;;;;;;9.07;5.28;;;;;;;;;;6248342;23;20311;-79
2022/08/16 13:10:54;;;;;;;12.13;5.53;;;;;;;;;;6242363;23;20391;-79
2022/08/16 13:13:46;;;;;;;7.53;4.68;;;;;;;;;;6249340;23;20246;-79
2022/08/16 13:16:20;;;;;;;8.37;4.97;;;;;;;;;;6247170;23;20095;-79
2022/08/16 13:18:50;;;;;;;9.45;5.55;;;;;;;;;;6211082;23;20255;-79
2022/08/16 13:21:20;;;;;;;9.13;5.60;;;;;;;;;;6248299;23;20099;-78
2022/08/16 13:24:16;;;;;;;10.52;5.85;;;;;;;;;;6248882;23;20479;-79
2022/08/16 13:27:08;;;;;;;8.35;5.53;;;;;;;;;;6227686;23;20019;-79
2022/08/16 13:29:36;;;;;;;11.85;5.65;;;;;;;;;;6248769;23;20012;-78
2022/08/16 13:32:16;;;;;;;9.80;5.70;;;;;;;;;;6247626;23;20020;-78
2022/08/16 13:35:05;;;;;;;10.63;5.80;;;;;;;;;;6248892;23;20314;-80
2022/08/16 13:37:38;;;;;;;11.57;5.40;;;;;;;;;;6221799;23;20016;-80
2022/08/16 13:40:16;;;;;;;8.30;5.28;;;;;;;;;;6220395;23;20724;-79
2022/08/16 13:42:48;;;;;;;12.07;5.53;;;;;;;;;;6248454;23;20020;-80
2022/08/16 13:45:39;;;;;;;10.63;6.03;;;;;;;;;;6227258;23;20150;-80
2022/08/16 13:48:17;;;;;;;11.75;6.63;;;;;;;;;;6246588;23;20020;-79
2022/08/16 13:50:54;;;;;;;8.48;6.10;;;;;;;;;;6248182;23;20047;-79
2022/08/16 13:53:27;;;;;;;8.93;6.20;;;;;;;;;;6210962;23;20124;-79
2022/08/16 13:56:19;;;;;;;8.52;5.20;;;;;;;;;;6247883;23;20385;-78
2022/08/16 13:58:56;;;;;;;10.27;5.50;;;;;;;;;;6219391;23;20051;-79
2022/08/16 14:01:24;;;;;;;8.35;5.13;;;;;;;;;;6246948;23;20088;-78
2022/08/16 14:03:52;;;;;;;7.53;5.00;;;;;;;;;;6248506;23;20035;-78
2022/08/16 14:06:22;;;;;;;7.90;5.70;;;;;;;;;;6247291;23;20024;-79
2022/08/16 14:08:55;;;;;;;8.43;4.72;;;;;;;;;;6248179;23;20016;-79
2022/08/16 14:11:33;;;;;;;8.35;5.30;;;;;;;;;;6223031;23;20071;-78
2022/08/16 14:14:26;;;;;;;8.73;4.85;;;;;;;;;;6247602;23;20115;-78
2022/08/16 14:17:20;;;;;;;9.00;4.68;;;;;;;;;;6246535;23;20011;-79
2022/08/16 14:19:49;;;;;;;10.40;4.53;;;;;;;;;;6248537;23;20023;-78
2022/08/16 14:22:44;;;;;;;7.28;4.43;;;;;;;;;;6248158;23;20074;-78
2022/08/16 14:25:20;;;;;;;6.23;4.57;;;;;;;;;;6220972;23;20421;-78
2022/08/16 14:27:48;;;;;;;13.63;4.53;;;;;;;;;;6248337;23;20592;-78
2022/08/16 14:30:26;;;;;;;4.53;3.53;;;;;;;;;;6247845;23;20367;-78
2022/08/16 14:32:55;;;;;;;8.25;4.07;;;;;;;;;;6247786;23;20028;-78
2022/08/16 14:35:26;;;;;;;9.48;4.07;;;;;;;;;;6247700;23;20016;-79
2022/08/16 14:38:16;;;;;;;5.55;3.85;;;;;;;;;;6211506;23;20035;-78
2022/08/16 14:40:51;;;;;;;8.63;3.97;;;;;;;;;;6248235;23;20020;-78
2022/08/16 14:43:24;;;;;;;6.07;3.83;;;;;;;;;;6222190;23;20024;-79
2022/08/16 14:45:56;;;;;;;8.80;4.45;;;;;;;;;;6248490;23;20361;-78
2022/08/16 14:48:24;;;;;;;9.80;4.30;;;;;;;;;;6248182;23;20079;-78
2022/08/16 14:50:53;;;;;;;6.38;4.13;;;;;;;;;;6246907;23;20091;-78
2022/08/16 14:53:24;;;;;;;9.35;4.30;;;;;;;;;;6249129;23;20051;-78
2022/08/16 14:56:14;;;;;;;9.18;5.03;;;;;;;;;;6248067;23;20069;-78
2022/08/16 14:59:02;;;;;;;9.50;5.03;;;;;;;;;;6226418;23;20012;-78
2022/08/16 15:01:30;;;;;;;6.68;4.68;;;;;;;;;;6220958;23;20039;-78
2022/08/16 15:04:22;;;;;;;7.05;4.75;;;;;;;;;;6247723;23;20051;-78
2022/08/16 15:07:08;;;;;;;8.00;4.90;;;;;;;;;;6246476;23;20024;-79
2022/08/16 15:09:41;;;;;;;12.95;5.13;;;;;;;;;;6247869;23;20016;-79
2022/08/16 15:12:30;;;;;;;5.13;3.85;;;;;;;;;;6248631;23;20020;-78
2022/08/16 15:15:03;;;;;;;5.93;3.97;;;;;;;;;;6248671;23;20051;-78
2022/08/16 15:17:41;;;;;;;6.47;4.43;;;;;;;;;;6246215;23;20020;-79
2022/08/16 15:20:21;;;;;;;7.38;4.68;;;;;;;;;;6248239;23;20016;-79
2022/08/16 15:22:59;;;;;;;8.00;4.25;;;;;;;;;;6246983;23;20027;-80
2022/08/16 15:25:33;;;;;;;7.07;4.60;;;;;;;;;;6247936;23;20020;-79
2022/08/16 15:28:02;;;;;;;7.82;4.30;;;;;;;;;;6247701;23;20020;-79
2022/08/16 15:31:00;;;;;;;7.65;4.40;;;;;;;;;;6247214;23;20016;-79
2022/08/16 15:33:33;;;;;;;8.60;3.92;;;;;;;;;;6247510;23;20539;-79
2022/08/16 15:36:03;;;;;;;9.18;4.15;;;;;;;;;;6247983;23;20094;-80
2022/08/16 15:38:33;;;;;;;7.20;4.10;;;;;;;;;;6247284;23;20020;-79
2022/08/16 15:41:53;;;;;;;6.57;4.20;;;;;;;;;;6238371;23;20097;-78
2022/08/16 15:44:35;;;;;;;7.78;4.25;;;;;;;;;;6247531;23;20091;-80
2022/08/16 15:47:24;;;;;;;8.25;4.50;;;;;;;;;;6246916;23;20016;-80
2022/08/16 15:50:16;;;;;;;10.77;4.28;;;;;;;;;;6246692;23;20478;-78
2022/08/16 15:52:46;;;;;;;6.40;3.63;;;;;;;;;;6247835;23;20649;-79
2022/08/16 15:55:14;;;;;;;6.05;4.20;;;;;;;;;;6248389;23;20023;-78
2022/08/16 15:58:03;;;;;;;6.20;4.13;;;;;;;;;;6249009;23;20103;-78
2022/08/16 16:01:20;;;;;;;11.52;4.47;;;;;;;;;;6247280;23;20026;-78
2022/08/16 16:03:52;;;;;;;10.38;4.28;;;;;;;;;;6248220;23;20016;-78
2022/08/16 16:06:20;;;;;;;5.88;3.90;;;;;;;;;;6211058;23;20411;-81
2022/08/16 16:09:21;;;;;;;9.45;4.22;;;;;;;;;;6246727;23;20023;-81
2022/08/16 16:12:04;;;;;;;6.30;4.35;;;;;;;;;;6246024;23;20024;-81
2022/08/16 16:14:52;;;;;;;6.82;4.28;;;;;;;;;;6247681;23;20409;-82
2022/08/16 16:17:28;;;;;;;9.13;4.32;;;;;;;;;;6245330;23;20027;-80
2022/08/16 16:19:56;;;;;;;9.23;4.40;;;;;;;;;;6248186;23;20013;-80
2022/08/16 16:22:51;;;;;;;6.05;4.38;;;;;;;;;;6247894;23;20459;-80
2022/08/16 16:25:18;;;;;;;7.40;4.50;;;;;;;;;;6247787;23;20020;-80
2022/08/16 16:28:13;;;;;;;7.35;4.70;;;;;;;;;;6221951;23;20517;-80
2022/08/16 16:31:03;;;;;;;8.02;4.57;;;;;;;;;;6211635;23;20364;-80
2022/08/16 16:33:46;;;;;;;6.85;4.28;;;;;;;;;;6250817;23;20043;-81
2022/08/16 16:36:18;;;;;;;11.43;4.80;;;;;;;;;;6249379;23;20530;-80
2022/08/16 16:38:57;;;;;;;7.47;4.15;;;;;;;;;;6223018;23;20016;-80
2022/08/16 16:41:26;;;;;;;6.68;4.50;;;;;;;;;;6249444;23;20152;-80